createdAt,value
2023-05-15T00:02:07.793Z,99.90
2023-05-15T00:04:34.710Z,99.90
2023-05-15T00:07:01.460Z,99.90
2023-05-15T00:09:28.178Z,99.90
2023-05-15T00:11:54.953Z,99.90
2023-05-15T00:14:21.927Z,99.90
2023-05-15T00:16:48.723Z,99.90
2023-05-15T00:19:15.996Z,99.90
2023-05-15T00:21:42.931Z,99.90
2023-05-15T00:24:09.636Z,99.90
2023-05-15T00:26:36.949Z,99.90
2023-05-15T00:29:03.702Z,99.90
2023-05-15T00:31:30.509Z,99.90
2023-05-15T00:33:57.748Z,99.90
2023-05-15T00:36:25.972Z,99.90
2023-05-15T00:38:53.841Z,99.90
2023-05-15T00:41:22.763Z,99.90
2023-05-15T00:43:52.222Z,99.90
2023-05-15T00:46:21.232Z,99.90
2023-05-15T00:48:49.615Z,99.90
2023-05-15T00:51:17.225Z,99.90
2023-05-15T00:53:44.623Z,99.90
2023-05-15T00:56:12.291Z,99.90
2023-05-15T00:58:39.141Z,99.90
2023-05-15T01:01:08.303Z,99.90
2023-05-15T01:03:36.107Z,99.90
2023-05-15T01:06:03.029Z,99.90
2023-05-15T01:08:35.789Z,99.90
2023-05-15T01:11:03.289Z,99.90
2023-05-15T01:13:30.031Z,99.90
2023-05-15T01:15:57.342Z,1.00
2023-05-15T01:18:24.166Z,1.00
2023-05-15T01:21:06.371Z,1.00
2023-05-15T01:23:54.676Z,1.00
2023-05-15T01:26:41.982Z,1.00
2023-05-15T01:29:15.027Z,1.00
2023-05-15T01:31:42.906Z,1.00
2023-05-15T01:34:10.774Z,1.00
2023-05-15T01:36:47.388Z,1.00
2023-05-15T01:39:16.326Z,99.90
2023-05-15T01:41:55.988Z,99.90
2023-05-15T01:44:27.411Z,99.90
2023-05-15T01:46:57.958Z,99.90
2023-05-15T01:49:26.923Z,99.90
2023-05-15T01:52:03.509Z,99.90
2023-05-15T01:54:31.049Z,1.00
2023-05-15T01:56:58.983Z,99.90
2023-05-15T01:59:26.555Z,99.90
2023-05-15T02:01:53.390Z,99.90
2023-05-15T02:04:21.136Z,99.90
2023-05-15T02:06:50.318Z,99.90
2023-05-15T02:09:17.493Z,99.90
2023-05-15T02:11:44.528Z,99.90
2023-05-15T02:14:12.704Z,99.90
2023-05-15T02:16:39.916Z,99.90
2023-05-15T02:19:06.726Z,99.90
2023-05-15T02:21:34.397Z,99.90
2023-05-15T02:24:01.252Z,99.90
2023-05-15T02:26:41.852Z,99.90
2023-05-15T02:29:18.029Z,99.90
2023-05-15T02:31:58.463Z,1.00
2023-05-15T02:34:53.517Z,99.90
2023-05-15T02:37:24.993Z,99.90
2023-05-15T02:39:54.530Z,99.90
2023-05-15T02:42:21.954Z,99.90
2023-05-15T02:44:49.079Z,99.90
2023-05-15T02:47:16.264Z,99.90
2023-05-15T02:49:43.175Z,99.90
2023-05-15T02:52:10.034Z,99.90
2023-05-15T02:54:36.730Z,99.90
2023-05-15T02:57:03.603Z,99.90
2023-05-15T02:59:30.430Z,99.90
2023-05-15T03:01:57.154Z,99.90
2023-05-15T03:04:23.871Z,1.00
2023-05-15T03:06:50.855Z,1.00
2023-05-15T03:09:17.953Z,99.90
2023-05-15T03:11:44.649Z,1.00
2023-05-15T03:14:11.378Z,1.00
2023-05-15T03:16:39.002Z,1.00
2023-05-15T03:19:06.154Z,1.00
2023-05-15T03:21:34.956Z,99.90
2023-05-15T03:24:02.013Z,1.00
2023-05-15T03:26:28.747Z,1.00
2023-05-15T03:28:55.726Z,1.00
2023-05-15T03:31:22.534Z,1.00
2023-05-15T03:33:51.353Z,99.90
2023-05-15T03:36:18.140Z,99.90
2023-05-15T03:38:44.957Z,1.00
2023-05-15T03:41:11.740Z,1.00
2023-05-15T03:43:38.526Z,1.00
2023-05-15T03:46:05.901Z,1.00
2023-05-15T03:48:32.622Z,1.00
2023-05-15T03:50:59.360Z,1.00
2023-05-15T03:53:26.269Z,1.00
2023-05-15T03:55:53.004Z,1.00
2023-05-15T03:58:19.702Z,99.90
2023-05-15T04:00:46.535Z,99.90
2023-05-15T04:03:13.427Z,99.90
2023-05-15T04:05:40.445Z,99.90
2023-05-15T04:08:07.291Z,99.90
2023-05-15T04:10:34.048Z,1.00
2023-05-15T04:13:00.796Z,1.00
2023-05-15T04:15:28.711Z,99.90
2023-05-15T04:17:55.870Z,99.90
2023-05-15T04:20:24.119Z,58.20
2023-05-15T04:22:51.647Z,99.90
2023-05-15T04:25:20.201Z,1.00
2023-05-15T04:27:47.135Z,1.00
2023-05-15T04:30:13.963Z,99.90
2023-05-15T04:32:41.196Z,1.00
2023-05-15T04:35:10.381Z,99.90
2023-05-15T04:37:38.240Z,1.00
2023-05-15T04:40:07.425Z,1.00
2023-05-15T04:42:35.053Z,1.00
2023-05-15T04:45:02.421Z,99.90
2023-05-15T04:47:29.158Z,99.90
2023-05-15T04:49:56.220Z,99.90
2023-05-15T04:52:23.205Z,1.00
2023-05-15T04:54:51.146Z,1.00
2023-05-15T04:57:17.904Z,1.00
2023-05-15T04:59:44.695Z,1.00
2023-05-15T05:02:11.456Z,99.90
2023-05-15T05:04:38.250Z,99.90
2023-05-15T05:07:05.890Z,1.00
2023-05-15T05:09:32.749Z,31.60
2023-05-15T05:12:00.076Z,1.00
2023-05-15T05:14:27.142Z,99.90
2023-05-15T05:16:53.910Z,99.90
2023-05-15T05:19:20.650Z,99.90
2023-05-15T05:21:47.416Z,1.00
2023-05-15T05:24:14.330Z,1.00
2023-05-15T05:26:43.939Z,99.90
2023-05-15T05:29:11.397Z,1.00
2023-05-15T05:31:38.322Z,1.00
2023-05-15T05:34:05.322Z,1.00
2023-05-15T05:36:32.181Z,1.00
2023-05-15T05:38:59.242Z,99.90
2023-05-15T05:41:26.015Z,99.90
2023-05-15T05:43:52.848Z,1.00
2023-05-15T05:46:19.639Z,1.00
2023-05-15T05:48:46.502Z,1.00
2023-05-15T05:51:13.315Z,1.00
2023-05-15T05:53:40.129Z,1.00
2023-05-15T05:56:07.171Z,99.90
2023-05-15T05:58:33.929Z,1.00
2023-05-15T06:01:00.971Z,1.00
2023-05-15T06:03:28.199Z,31.80
2023-05-15T06:05:55.189Z,1.00
2023-05-15T06:08:21.919Z,31.80
2023-05-15T06:10:49.008Z,32.40
2023-05-15T06:13:15.877Z,99.90
2023-05-15T06:15:43.119Z,99.90
2023-05-15T06:18:09.941Z,99.90
2023-05-15T06:20:36.738Z,1.00
2023-05-15T06:23:03.448Z,99.90
2023-05-15T06:25:30.654Z,62.80
2023-05-15T06:27:57.470Z,99.90
2023-05-15T06:30:24.524Z,1.00
2023-05-15T06:32:51.444Z,1.00
2023-05-15T06:35:18.318Z,1.00
2023-05-15T06:37:50.099Z,1.00
2023-05-15T06:40:16.957Z,1.00
2023-05-15T06:42:43.745Z,1.00
2023-05-15T06:45:10.876Z,99.90
2023-05-15T06:47:37.641Z,99.90
2023-05-15T06:50:05.436Z,99.90
2023-05-15T06:52:32.188Z,99.90
2023-05-15T06:54:58.970Z,99.90
2023-05-15T06:57:26.377Z,99.90
2023-05-15T06:59:53.124Z,99.90
2023-05-15T07:02:19.878Z,99.90
2023-05-15T07:04:46.680Z,99.90
2023-05-15T07:07:13.453Z,99.90
2023-05-15T07:09:40.436Z,99.90
2023-05-15T07:12:07.552Z,33.00
2023-05-15T07:14:34.294Z,99.90
2023-05-15T07:17:01.111Z,99.90
2023-05-15T07:19:27.957Z,99.90
2023-05-15T07:21:54.740Z,32.30
2023-05-15T07:24:21.559Z,99.90
2023-05-15T07:26:58.260Z,32.40
2023-05-15T07:29:25.824Z,1.00
2023-05-15T07:31:53.038Z,99.90
2023-05-15T07:34:19.789Z,99.90
2023-05-15T07:36:46.584Z,74.90
2023-05-15T07:39:13.861Z,37.40
2023-05-15T07:41:40.892Z,99.90
2023-05-15T07:44:07.713Z,37.50
2023-05-15T07:46:35.136Z,32.30
2023-05-15T07:49:02.284Z,1.00
2023-05-15T07:51:29.158Z,1.00
2023-05-15T07:53:55.915Z,1.00
2023-05-15T07:56:23.286Z,1.00
2023-05-15T07:58:50.170Z,1.00
2023-05-15T08:01:16.945Z,1.00
2023-05-15T08:03:44.111Z,1.00
2023-05-15T08:06:11.033Z,1.00
2023-05-15T08:08:37.758Z,99.90
2023-05-15T08:11:04.550Z,1.00
2023-05-15T08:13:31.368Z,99.90
2023-05-15T08:15:58.212Z,99.90
2023-05-15T08:18:25.031Z,99.90
2023-05-15T08:20:52.349Z,1.00
2023-05-15T08:23:19.201Z,99.90
2023-05-15T08:25:45.941Z,1.00
2023-05-15T08:28:12.728Z,1.00
2023-05-15T08:30:39.538Z,1.00
2023-05-15T08:33:06.443Z,99.90
2023-05-15T08:35:33.366Z,99.90
2023-05-15T08:38:00.548Z,1.00
2023-05-15T08:40:38.194Z,99.90
2023-05-15T08:43:16.134Z,99.90
2023-05-15T08:45:43.462Z,99.90
2023-05-15T08:48:17.265Z,99.90
2023-05-15T08:50:44.321Z,1.00
2023-05-15T08:53:12.931Z,99.90
2023-05-15T08:55:40.663Z,99.90
2023-05-15T08:58:08.024Z,99.90
2023-05-15T09:00:35.110Z,99.90
2023-05-15T09:03:02.269Z,99.90
2023-05-15T09:05:30.084Z,99.90
2023-05-15T09:07:57.249Z,99.90
2023-05-15T09:10:24.445Z,99.90
2023-05-15T09:12:52.393Z,99.90
2023-05-15T09:15:25.036Z,99.90
2023-05-15T09:17:52.570Z,99.90
2023-05-15T09:20:26.919Z,99.90
2023-05-15T09:22:54.464Z,99.90
2023-05-15T09:25:37.462Z,99.90
2023-05-15T09:28:05.575Z,99.90
2023-05-15T09:30:32.593Z,99.90
2023-05-15T09:33:01.495Z,99.90
2023-05-15T09:35:32.862Z,7.80
2023-05-15T09:38:00.721Z,26.60
2023-05-15T09:40:31.982Z,65.20
2023-05-15T09:42:59.177Z,46.50
2023-05-15T09:45:30.410Z,1.00
2023-05-15T09:48:00.103Z,1.00
2023-05-15T09:50:39.432Z,37.90
2023-05-15T09:53:06.643Z,2.70
2023-05-15T09:55:36.437Z,1.00
2023-05-15T09:58:12.017Z,1.00
2023-05-15T10:00:48.456Z,1.00
2023-05-15T10:03:17.662Z,1.00
2023-05-15T10:05:44.760Z,1.00
2023-05-15T10:08:12.301Z,1.00
2023-05-15T10:10:39.117Z,9.10
2023-05-15T10:13:08.027Z,1.00
2023-05-15T10:15:35.328Z,1.00
2023-05-15T10:18:04.608Z,1.00
2023-05-15T10:20:35.552Z,1.00
2023-05-15T10:23:04.636Z,1.00
2023-05-15T10:25:42.015Z,1.00
2023-05-15T10:28:10.279Z,1.00
2023-05-15T10:30:37.631Z,1.00
2023-05-15T10:33:06.192Z,7.80
2023-05-15T10:35:34.137Z,99.90
2023-05-15T10:38:04.232Z,99.90
2023-05-15T10:40:30.969Z,99.90
2023-05-15T10:43:00.276Z,99.90
2023-05-15T10:45:28.035Z,99.90
2023-05-15T10:47:55.072Z,98.90
2023-05-15T10:50:21.915Z,99.90
2023-05-15T10:52:51.952Z,99.90
2023-05-15T10:55:19.248Z,99.90
2023-05-15T10:57:47.336Z,99.90
2023-05-15T11:00:23.721Z,99.90
2023-05-15T11:02:57.149Z,99.90
2023-05-15T11:05:24.992Z,99.90
2023-05-15T11:08:21.565Z,99.90
2023-05-15T11:10:48.349Z,99.90
2023-05-15T11:13:15.227Z,1.00
2023-05-15T11:15:46.624Z,1.00
2023-05-15T11:18:14.076Z,1.00
2023-05-15T11:20:42.547Z,1.00
2023-05-15T11:23:09.659Z,1.00
2023-05-15T11:25:37.264Z,1.00
2023-05-15T11:28:04.990Z,33.20
2023-05-15T11:30:39.429Z,1.00
2023-05-15T11:33:10.434Z,1.00
2023-05-15T11:35:38.981Z,1.00
2023-05-15T11:38:05.818Z,1.00
2023-05-15T11:40:44.153Z,1.00
2023-05-15T11:43:17.110Z,1.00
2023-05-15T11:45:47.288Z,1.00
2023-05-15T11:48:16.587Z,1.00
2023-05-15T11:50:45.439Z,1.00
2023-05-15T11:53:12.889Z,1.00
2023-05-15T11:55:41.579Z,1.00
2023-05-15T11:58:13.845Z,1.00
2023-05-15T12:00:41.947Z,1.00
2023-05-15T12:03:26.506Z,1.00
2023-05-15T12:08:23.877Z,1.00
2023-05-15T12:10:50.718Z,1.00
2023-05-15T12:13:18.283Z,1.00
2023-05-15T12:15:46.307Z,1.00
2023-05-15T12:18:13.901Z,1.00
2023-05-15T12:20:46.690Z,1.00
2023-05-15T12:23:17.301Z,1.00
2023-05-15T12:25:46.436Z,1.00
2023-05-15T12:28:13.870Z,1.00
2023-05-15T12:30:42.261Z,1.00
2023-05-15T12:33:10.360Z,1.00
2023-05-15T12:35:42.504Z,1.00
2023-05-15T12:38:09.502Z,1.00
2023-05-15T12:40:36.921Z,1.00
2023-05-15T12:43:07.594Z,1.00
2023-05-15T12:45:36.331Z,1.00
2023-05-15T12:48:04.058Z,1.00
2023-05-15T12:50:33.091Z,1.00
2023-05-15T12:53:04.535Z,1.00
2023-05-15T12:55:33.668Z,1.00
2023-05-15T12:58:02.412Z,1.00
2023-05-15T13:00:30.364Z,1.00
2023-05-15T13:02:58.004Z,1.00
2023-05-15T13:05:26.147Z,1.00
2023-05-15T13:07:53.428Z,1.00
2023-05-15T13:10:23.166Z,1.00
2023-05-15T13:12:52.088Z,1.00
2023-05-15T13:15:23.833Z,99.90
2023-05-15T13:18:09.710Z,99.90
2023-05-15T13:20:41.970Z,99.90
2023-05-15T13:23:10.670Z,99.90
2023-05-15T13:25:37.679Z,99.90
2023-05-15T13:28:05.886Z,99.90
2023-05-15T13:30:39.099Z,99.90
2023-05-15T13:33:05.848Z,99.90
2023-05-15T13:35:32.647Z,99.90
2023-05-15T13:37:59.487Z,99.90
2023-05-15T13:40:27.340Z,99.90
2023-05-15T13:42:54.269Z,90.60
2023-05-15T13:45:21.336Z,99.90
2023-05-15T13:47:48.168Z,6.00
2023-05-15T13:50:16.140Z,1.00
2023-05-15T13:52:44.233Z,1.00
2023-05-15T13:55:11.227Z,1.00
2023-05-15T13:57:42.339Z,1.00
2023-05-15T14:00:13.496Z,1.00
2023-05-15T14:02:43.309Z,1.00
2023-05-15T14:05:14.971Z,1.00
2023-05-15T14:07:42.049Z,1.00
2023-05-15T14:10:09.466Z,1.00
2023-05-15T14:12:36.922Z,7.90
2023-05-15T14:15:04.030Z,24.20
2023-05-15T14:17:30.868Z,15.00
2023-05-15T14:19:57.711Z,99.90
2023-05-15T14:22:25.140Z,99.90
2023-05-15T14:24:53.160Z,99.90
2023-05-15T14:27:20.136Z,99.90
2023-05-15T14:29:48.904Z,99.90
2023-05-15T14:32:16.573Z,99.90
2023-05-15T14:34:43.732Z,99.90
2023-05-15T14:37:10.643Z,99.90
2023-05-15T14:39:37.487Z,99.90
2023-05-15T14:42:04.686Z,93.80
2023-05-15T14:44:31.578Z,99.90
2023-05-15T14:47:09.174Z,95.10
2023-05-15T14:49:36.567Z,99.90
2023-05-15T14:52:05.506Z,99.90
2023-05-15T14:54:32.345Z,99.90
2023-05-15T14:56:59.138Z,99.90
2023-05-15T14:59:27.569Z,99.90
2023-05-15T15:01:54.567Z,99.90
2023-05-15T15:04:21.455Z,99.90
2023-05-15T15:06:48.335Z,99.90
2023-05-15T15:09:15.320Z,99.90
2023-05-15T15:11:42.182Z,99.90
2023-05-15T15:14:09.000Z,99.90
2023-05-15T15:16:35.935Z,99.90
2023-05-15T15:19:02.845Z,99.90
2023-05-15T15:21:29.766Z,99.90
2023-05-15T15:23:57.270Z,99.90
2023-05-15T15:26:24.128Z,99.90
2023-05-15T15:28:50.910Z,99.90
2023-05-15T15:31:17.700Z,99.90
2023-05-15T15:33:45.193Z,99.90
2023-05-15T15:36:11.910Z,99.90
2023-05-15T15:38:41.880Z,99.90
2023-05-15T15:41:09.049Z,99.90
2023-05-15T15:43:35.854Z,99.90
2023-05-15T15:46:02.652Z,99.90
2023-05-15T15:48:29.561Z,84.10
2023-05-15T15:50:57.054Z,11.20
2023-05-15T15:53:23.933Z,11.50
2023-05-15T15:55:51.001Z,28.20
2023-05-15T15:58:19.762Z,1.00
2023-05-15T16:00:46.653Z,1.00
2023-05-15T16:05:40.426Z,1.00
2023-05-15T16:08:07.353Z,1.00
2023-05-15T16:10:34.272Z,1.00
2023-05-15T16:13:01.127Z,1.00
2023-05-15T16:15:27.938Z,1.00
2023-05-15T16:17:55.274Z,1.00
2023-05-15T16:20:23.476Z,1.00
2023-05-15T16:22:50.470Z,1.00
2023-05-15T16:25:17.302Z,7.60
2023-05-15T16:27:44.159Z,8.50
2023-05-15T16:30:11.658Z,86.90
2023-05-15T16:32:38.562Z,25.30
2023-05-15T16:35:05.972Z,46.20
2023-05-15T16:37:32.857Z,52.10
2023-05-15T16:39:59.740Z,56.30
2023-05-15T16:42:26.532Z,1.00
2023-05-15T16:44:53.313Z,1.00
2023-05-15T16:47:20.080Z,1.00
2023-05-15T16:49:49.210Z,1.00
2023-05-15T16:52:17.058Z,1.00
2023-05-15T16:54:43.837Z,1.00
2023-05-15T16:57:10.809Z,1.00
2023-05-15T16:59:37.629Z,1.00
2023-05-15T17:02:04.821Z,1.00
2023-05-15T17:04:35.007Z,10.10
2023-05-15T17:07:01.880Z,1.00
2023-05-15T17:09:28.693Z,1.00
2023-05-15T17:11:55.558Z,1.00
2023-05-15T17:14:22.738Z,1.00
2023-05-15T17:16:49.590Z,1.00
2023-05-15T17:19:16.439Z,1.00
2023-05-15T17:21:44.666Z,1.00
2023-05-15T17:24:11.517Z,1.00
2023-05-15T17:26:38.267Z,1.00
2023-05-15T17:29:05.153Z,1.00
2023-05-15T17:31:34.387Z,1.00
2023-05-15T17:34:01.343Z,1.00
2023-05-15T17:36:28.170Z,1.00
2023-05-15T17:38:54.973Z,1.00
2023-05-15T17:41:22.136Z,1.00
2023-05-15T17:43:49.533Z,1.00
2023-05-15T17:46:16.528Z,1.00
2023-05-15T17:48:43.325Z,1.00
2023-05-15T17:51:10.159Z,1.00
2023-05-15T17:53:36.866Z,99.90
2023-05-15T17:56:03.962Z,99.90
2023-05-15T17:58:30.708Z,99.90
2023-05-15T18:00:57.555Z,99.90
2023-05-15T18:03:24.560Z,99.90
2023-05-15T18:05:51.891Z,99.90
2023-05-15T18:08:18.784Z,99.90
2023-05-15T18:10:46.028Z,99.90
2023-05-15T18:13:13.166Z,99.90
2023-05-15T18:15:40.043Z,99.90
2023-05-15T18:18:07.098Z,99.90
2023-05-15T18:20:33.995Z,99.90
2023-05-15T18:23:00.810Z,99.90
2023-05-15T18:25:28.127Z,99.90
2023-05-15T18:27:55.241Z,99.90
2023-05-15T18:30:22.161Z,99.90
2023-05-15T18:32:48.948Z,99.90
2023-05-15T18:35:15.725Z,99.90
2023-05-15T18:37:42.485Z,99.90
2023-05-15T18:40:09.785Z,99.90
2023-05-15T18:42:36.602Z,99.90
2023-05-15T18:45:03.570Z,99.90
2023-05-15T18:47:30.334Z,99.90
2023-05-15T18:49:57.125Z,53.40
2023-05-15T18:52:24.584Z,21.70
2023-05-15T18:54:52.556Z,9.90
2023-05-15T18:57:19.959Z,19.60
2023-05-15T18:59:48.105Z,9.80
2023-05-15T19:02:15.124Z,1.00
2023-05-15T19:04:42.099Z,1.00
2023-05-15T19:07:08.861Z,1.00
2023-05-15T19:09:35.652Z,8.30
2023-05-15T19:12:02.948Z,18.00
2023-05-15T19:14:29.792Z,20.10
2023-05-15T19:16:56.665Z,28.90
2023-05-15T19:19:23.635Z,42.60
2023-05-15T19:21:51.925Z,42.10
2023-05-15T19:24:20.424Z,27.20
2023-05-15T19:26:47.380Z,43.30
2023-05-15T19:29:14.114Z,29.50
2023-05-15T19:31:41.879Z,39.50
2023-05-15T19:34:08.848Z,48.90
2023-05-15T19:36:35.749Z,78.80
2023-05-15T19:39:02.626Z,55.30
2023-05-15T19:41:29.524Z,43.50
2023-05-15T19:43:56.431Z,45.70
2023-05-15T19:46:23.273Z,46.50
2023-05-15T19:48:50.285Z,53.80
2023-05-15T19:51:17.665Z,59.20
2023-05-15T19:53:44.789Z,72.90
2023-05-15T19:56:13.794Z,65.60
2023-05-15T19:58:40.792Z,75.20
2023-05-15T20:01:07.894Z,55.90
2023-05-15T20:03:34.889Z,68.00
2023-05-15T20:06:02.591Z,61.10
2023-05-15T20:08:29.658Z,25.00
2023-05-15T20:10:57.222Z,1.00
2023-05-15T20:13:24.105Z,1.00
2023-05-15T20:15:56.864Z,1.00
2023-05-15T20:18:28.089Z,1.00
2023-05-15T20:20:55.307Z,1.00
2023-05-15T20:23:22.647Z,1.00
2023-05-15T20:25:51.115Z,1.00
2023-05-15T20:28:18.032Z,1.00
2023-05-15T20:30:47.288Z,1.00
2023-05-15T20:33:14.600Z,1.00
2023-05-15T20:35:43.452Z,1.00
2023-05-15T20:38:10.570Z,1.00
2023-05-15T20:40:38.149Z,1.00
2023-05-15T20:43:05.087Z,1.00
2023-05-15T20:45:34.915Z,1.00
2023-05-15T20:48:01.819Z,1.00
2023-05-15T20:50:28.746Z,1.00
2023-05-15T20:52:55.774Z,1.00
2023-05-15T20:55:22.634Z,1.00
2023-05-15T20:57:50.281Z,1.00
2023-05-15T21:00:18.050Z,1.00
2023-05-15T21:02:46.552Z,1.00
2023-05-15T21:05:14.092Z,1.00
2023-05-15T21:07:41.381Z,1.00
2023-05-15T21:10:08.886Z,1.00
2023-05-15T21:12:35.817Z,1.00
2023-05-15T21:15:03.039Z,1.00
2023-05-15T21:17:30.076Z,1.00
2023-05-15T21:19:58.519Z,1.00
2023-05-15T21:22:25.349Z,1.00
2023-05-15T21:24:52.275Z,1.00
2023-05-15T21:27:19.100Z,1.00
2023-05-15T21:29:46.370Z,1.00
2023-05-15T21:32:13.155Z,1.00
2023-05-15T21:34:39.959Z,1.00
2023-05-15T21:37:06.793Z,1.00
2023-05-15T21:39:33.566Z,1.00
2023-05-15T21:42:00.359Z,1.00
2023-05-15T21:44:27.109Z,1.00
2023-05-15T21:46:53.926Z,1.00
2023-05-15T21:49:20.904Z,1.00
2023-05-15T21:51:47.648Z,1.00
2023-05-15T21:54:14.413Z,1.00
2023-05-15T21:56:41.338Z,9.50
2023-05-15T21:59:08.129Z,16.10
2023-05-15T22:01:36.190Z,12.20
2023-05-15T22:04:03.265Z,18.30
2023-05-15T22:06:30.156Z,20.00
2023-05-15T22:08:57.535Z,18.50
2023-05-15T22:11:25.030Z,44.20
2023-05-15T22:13:51.778Z,38.60
2023-05-15T22:16:19.337Z,40.00
2023-05-15T22:18:47.683Z,40.80
2023-05-15T22:21:15.210Z,37.10
2023-05-15T22:23:42.901Z,30.20
2023-05-15T22:26:09.779Z,27.30
2023-05-15T22:28:36.651Z,29.00
2023-05-15T22:31:04.244Z,25.20
2023-05-15T22:33:31.094Z,27.80
2023-05-15T22:35:57.879Z,17.10
2023-05-15T22:38:24.694Z,19.50
2023-05-15T22:40:52.428Z,20.10
2023-05-15T22:43:19.411Z,19.00
2023-05-15T22:45:46.111Z,21.80
2023-05-15T22:48:12.862Z,18.00
2023-05-15T22:50:39.640Z,22.40
2023-05-15T22:53:06.357Z,13.00
2023-05-15T22:55:33.135Z,12.00
2023-05-15T22:57:59.869Z,6.10
2023-05-15T23:00:26.865Z,7.60
2023-05-15T23:02:55.458Z,1.00
2023-05-15T23:05:22.930Z,1.00
2023-05-15T23:07:50.120Z,4.30
2023-05-15T23:10:17.116Z,2.20
2023-05-15T23:12:43.928Z,7.50
2023-05-15T23:15:10.992Z,9.10
2023-05-15T23:17:38.197Z,11.20
2023-05-15T23:20:14.980Z,8.90
2023-05-15T23:22:41.717Z,24.20
2023-05-15T23:25:08.907Z,57.00
2023-05-15T23:27:35.840Z,61.30
2023-05-15T23:30:02.631Z,88.80
2023-05-15T23:32:29.442Z,93.90
2023-05-15T23:34:58.371Z,73.30
2023-05-15T23:37:25.848Z,77.10
2023-05-15T23:39:55.170Z,89.70
2023-05-15T23:42:22.992Z,75.70
2023-05-15T23:44:50.156Z,93.90
2023-05-15T23:47:17.034Z,99.90
2023-05-15T23:49:43.934Z,99.90
2023-05-15T23:52:10.849Z,99.90
2023-05-15T23:54:37.607Z,99.90
2023-05-15T23:57:04.733Z,99.90
2023-05-15T23:59:31.539Z,99.90
